Pagina principale
METAR-TAF:

METAR-TAF

Aeroporti :

Aeroporto di Cervia-Pisignano

Cervia, Italia

latitudine: 44-13N, longitudine: 012-18E, altezza: 6 m

Osservazione

Il bollettino è stato emesso 1 ora e 10 minuti fa, alle 11:55 UTC
Vento 9 kt da sud-est
Temperature 11°C
Umidità 71%
Pressione 1014 hPa
Visibilità 10 km o più
Nubi sparse ad un'altezza di 5000 ft
Nuvoloso ad un'altezza di 6000 ft

METAR: LIPC 171155Z 13009KT 9999 SCT050 BKN060 11/06 Q1014 RMK BKN VIS MIN 9999 WIND THR11 /////KT WIND THR29 15007KT BLU

Ora: 14:05 (13:05 UTC)

Previsione

Il bollettino è stato emesso 2 ore e 5 minuti fa, alle 11:00 UTC
Previsione valida dal 17 alle 12 UTC al 17 alle 21 UTC
Vento 10 kt da sud
Visibilità 10 km o più
Nubi sparse ad un'altezza di 4000 ft
Nuvoloso ad un'altezza di 6000 ft

TAF: LIPC 171100Z 1712/1721 17010KT 9999 SCT040 BKN060

Osservazioni e previsioni meteorologiche di più di 4000 aeroporti (messaggi METAR e TAF).

Le stazioni disponibili sono rappresentate dai dischi gialli e rossi sulla carta.

Puntare il mouse per vedere il nome della stazione.

Clicca sopra per visualizzare le osservazioni e previsioni meteorologiche.

Per cambiare la mappa : fare clic sui pulsanti verdi con una croce nera per ingrandire, il pulsante verde con un trattino per diminuire, o sulla freccia verde per le mappe adiacenti.


METAR-TAF: